Austonio, Texas
Current Conditions -  °F | °C
As of 12:55 PM on Saturday 25 Oct 2014 (Local Time) from KDKR Reporting Station
Clear Clear  
Wind Chill: 82°   Ceiling: Unl
Heat Index: 84°   Visibility: 10mi
Dew Point: 64°   Wind: 5mph
Humidity: 54%   Direction: 250°WSW
Pressure: 30.18"   Gusts: NA
Location:  31.2828°N, 95.4821°W
Report Text: KDKR 251755Z AUTO 25004KT 10SM CLR 28/18 A3018 RMK AO2
Loading
Personal Weather Stations






























Interactive Weather Map
Tropical Storm Tracking
New forecast layout! Learn more

10-Day Weather Forecast

Advertisements
Track Severe Weather on mobile